Time;durP1;ratioP1;P1;durP2;ratioP2;P2;SDS_P1;SDS_P2;PMS_P1;PMS_P2;Temp;Humidity;BMP_temperature;BMP_pressure;BME280_temperature;BME280_humidity;BME280_pressure;Samples;Min_cycle;Max_cycle;Signal;HPM_P1;HPM_P2
2022/09/14 14:07:15;;;;;;;3.17;1.10;;;;;;;;;;4921492;29;20185;-94
2022/09/14 14:09:49;;;;;;;1.67;1.30;;;;;;;;;;4921592;29;20274;-95
2022/09/14 14:12:27;;;;;;;1.38;1.23;;;;;;;;;;4916578;29;20221;-93
2022/09/14 14:14:57;;;;;;;1.30;0.93;;;;;;;;;;4916678;29;20245;-94
2022/09/14 14:17:35;;;;;;;2.73;1.40;;;;;;;;;;4914941;29;20218;-95
2022/09/14 14:20:21;;;;;;;1.63;1.10;;;;;;;;;;4923487;29;20214;-94
2022/09/14 14:22:56;;;;;;;1.37;1.07;;;;;;;;;;4919843;29;20774;-95
2022/09/14 14:25:30;;;;;;;2.40;0.90;;;;;;;;;;4913096;29;20238;-95
2022/09/14 14:27:59;;;;;;;1.38;1.00;;;;;;;;;;4918864;29;20234;-93
2022/09/14 14:30:30;;;;;;;2.72;1.30;;;;;;;;;;4915572;29;20281;-93
2022/09/14 14:33:00;;;;;;;1.93;1.20;;;;;;;;;;4913080;29;20218;-94
2022/09/14 14:35:28;;;;;;;1.20;1.10;;;;;;;;;;4919370;29;20329;-94
2022/09/14 14:37:56;;;;;;;4.17;1.10;;;;;;;;;;4917894;29;20222;-94
2022/09/14 14:40:25;;;;;;;2.77;1.23;;;;;;;;;;4913713;29;20222;-94
2022/09/14 14:42:56;;;;;;;1.20;1.10;;;;;;;;;;4919474;29;20664;-95
2022/09/14 14:45:26;;;;;;;1.92;1.38;;;;;;;;;;4918781;29;20383;-95
2022/09/14 14:47:54;;;;;;;1.95;1.08;;;;;;;;;;4915436;29;20218;-94
2022/09/14 14:50:22;;;;;;;2.23;1.03;;;;;;;;;;4917288;29;20214;-94
2022/09/14 14:52:50;;;;;;;1.47;0.97;;;;;;;;;;4921512;29;20230;-94
2022/09/14 14:55:18;;;;;;;2.13;1.20;;;;;;;;;;4917914;29;20317;-93
2022/09/14 14:57:46;;;;;;;1.20;1.10;;;;;;;;;;4918442;29;20235;-92
2022/09/14 15:00:16;;;;;;;1.63;1.00;;;;;;;;;;4899477;29;20245;-93
2022/09/14 15:02:43;;;;;;;2.03;0.90;;;;;;;;;;4915089;29;20214;-93
2022/09/14 15:05:17;;;;;;;2.17;0.93;;;;;;;;;;4912656;29;20234;-94
2022/09/14 15:07:45;;;;;;;1.43;1.00;;;;;;;;;;4912327;29;20314;-93
2022/09/14 15:10:14;;;;;;;1.53;0.93;;;;;;;;;;4913392;29;20293;-92
2022/09/14 15:12:42;;;;;;;2.08;1.23;;;;;;;;;;4915703;29;20747;-94
2022/09/14 15:15:13;;;;;;;1.57;1.00;;;;;;;;;;4912159;29;20226;-92
2022/09/14 15:17:42;;;;;;;1.33;0.80;;;;;;;;;;4902727;29;20215;-93
2022/09/14 15:20:11;;;;;;;0.70;0.70;;;;;;;;;;4917075;29;20211;-93
2022/09/14 15:22:41;;;;;;;1.10;0.80;;;;;;;;;;4917923;29;20222;-93
2022/09/14 15:25:09;;;;;;;1.73;0.73;;;;;;;;;;4906728;29;20226;-93
2022/09/14 15:27:37;;;;;;;1.45;0.70;;;;;;;;;;4913727;29;20218;-93
2022/09/14 15:30:06;;;;;;;0.47;0.47;;;;;;;;;;4909975;29;20710;-94
2022/09/14 15:32:34;;;;;;;0.80;0.80;;;;;;;;;;4913440;29;20215;-94
2022/09/14 15:35:02;;;;;;;0.60;0.60;;;;;;;;;;4915013;29;20225;-94
2022/09/14 15:37:30;;;;;;;1.07;0.57;;;;;;;;;;4915971;29;20231;-94
2022/09/14 15:39:57;;;;;;;1.03;0.60;;;;;;;;;;4913018;29;20685;-93
2022/09/14 15:42:24;;;;;;;1.43;0.60;;;;;;;;;;4913050;29;20549;-93
2022/09/14 15:44:51;;;;;;;0.97;0.60;;;;;;;;;;4913035;29;20277;-94
2022/09/14 15:47:19;;;;;;;1.20;0.50;;;;;;;;;;4909331;29;20210;-94
2022/09/14 15:49:46;;;;;;;0.77;0.77;;;;;;;;;;4916236;29;20220;-94
2022/09/14 15:52:15;;;;;;;0.50;0.50;;;;;;;;;;4916539;29;20210;-94
2022/09/14 15:54:42;;;;;;;0.77;0.60;;;;;;;;;;4913208;29;20269;-92
2022/09/14 15:57:12;;;;;;;2.10;0.60;;;;;;;;;;4915954;29;20210;-94
2022/09/14 15:59:39;;;;;;;0.57;0.57;;;;;;;;;;4915451;29;20218;-93
2022/09/14 16:02:11;;;;;;;0.73;0.60;;;;;;;;;;4907740;29;20234;-94
2022/09/14 16:04:39;;;;;;;0.57;0.57;;;;;;;;;;4916044;29;20233;-93
2022/09/14 16:07:08;;;;;;;0.57;0.57;;;;;;;;;;4916597;29;20285;-93
2022/09/14 16:09:37;;;;;;;1.63;0.50;;;;;;;;;;4903132;29;20270;-92
2022/09/14 16:12:05;;;;;;;1.58;0.40;;;;;;;;;;4910984;29;20230;-93
2022/09/14 16:14:33;;;;;;;1.13;0.60;;;;;;;;;;4914382;29;20219;-91
2022/09/14 16:17:00;;;;;;;0.50;0.37;;;;;;;;;;4911906;29;20206;-94
2022/09/14 16:19:28;;;;;;;0.50;0.50;;;;;;;;;;4917144;29;20221;-93
2022/09/14 16:21:56;;;;;;;1.00;0.83;;;;;;;;;;4916942;29;20310;-94
2022/09/14 16:24:24;;;;;;;1.60;0.60;;;;;;;;;;4911834;29;20245;-94
2022/09/14 16:26:53;;;;;;;4.22;0.60;;;;;;;;;;4910990;29;20300;-94
2022/09/14 16:29:23;;;;;;;1.20;0.60;;;;;;;;;;4918504;29;20244;-94
2022/09/14 16:31:50;;;;;;;1.87;0.80;;;;;;;;;;4911757;29;20308;-94
2022/09/14 16:34:19;;;;;;;0.60;0.50;;;;;;;;;;4917155;29;20230;-94
2022/09/14 16:36:50;;;;;;;0.93;0.70;;;;;;;;;;4916491;29;20225;-94
2022/09/14 16:39:18;;;;;;;1.13;0.70;;;;;;;;;;4911751;29;20207;-95
2022/09/14 16:41:46;;;;;;;0.50;0.50;;;;;;;;;;4915070;29;20211;-95
2022/09/14 16:44:15;;;;;;;0.87;0.50;;;;;;;;;;4918192;29;20239;-95
2022/09/14 16:46:42;;;;;;;1.63;0.70;;;;;;;;;;4909211;29;20302;-94
